createdAt,value
2023-03-06T00:00:11.357Z,82.98
2023-03-06T00:02:37.961Z,82.88
2023-03-06T00:05:04.482Z,82.67
2023-03-06T00:07:31.221Z,82.88
2023-03-06T00:09:57.612Z,83.72
2023-03-06T00:12:24.080Z,83.85
2023-03-06T00:14:50.574Z,83.83
2023-03-06T00:17:16.984Z,83.56
2023-03-06T00:19:43.525Z,83.04
2023-03-06T00:22:11.979Z,83.48
2023-03-06T00:24:38.392Z,83.23
2023-03-06T00:27:04.849Z,83.29
2023-03-06T00:29:31.424Z,82.70
2023-03-06T00:31:57.833Z,83.03
2023-03-06T00:34:24.346Z,83.23
2023-03-06T00:36:50.843Z,83.50
2023-03-06T00:39:17.323Z,82.95
2023-03-06T00:41:46.622Z,82.53
2023-03-06T00:44:13.342Z,82.74
2023-03-06T00:46:39.760Z,83.80
2023-03-06T00:49:06.371Z,83.24
2023-03-06T00:51:32.845Z,83.79
2023-03-06T00:53:59.362Z,83.86
2023-03-06T00:56:25.874Z,83.45
2023-03-06T00:58:52.248Z,83.67
2023-03-06T01:01:18.889Z,83.70
2023-03-06T01:03:45.516Z,83.46
2023-03-06T01:06:12.017Z,83.62
2023-03-06T01:08:38.553Z,83.79
2023-03-06T01:11:05.178Z,83.83
2023-03-06T01:13:31.668Z,83.63
2023-03-06T01:16:11.078Z,83.95
2023-03-06T01:18:37.611Z,83.55
2023-03-06T01:21:04.156Z,83.45
2023-03-06T01:23:30.642Z,83.70
2023-03-06T01:25:57.112Z,83.44
2023-03-06T01:28:23.756Z,83.42
2023-03-06T01:30:50.155Z,83.39
2023-03-06T01:33:16.640Z,83.37
2023-03-06T01:35:43.075Z,83.51
2023-03-06T01:38:09.608Z,83.32
2023-03-06T01:40:36.431Z,83.22
2023-03-06T01:43:32.343Z,83.34
2023-03-06T01:46:17.474Z,83.70
2023-03-06T01:48:44.305Z,83.93
2023-03-06T01:51:10.863Z,83.78
2023-03-06T01:53:37.298Z,84.00
2023-03-06T01:56:03.819Z,82.88
2023-03-06T01:58:30.278Z,83.08
2023-03-06T02:00:56.712Z,83.03
2023-03-06T02:03:23.639Z,83.02
2023-03-06T02:05:50.097Z,82.90
2023-03-06T02:08:17.594Z,82.27
2023-03-06T02:10:50.288Z,82.49
2023-03-06T02:13:16.789Z,82.64
2023-03-06T02:15:43.271Z,82.88
2023-03-06T02:18:09.690Z,82.73
2023-03-06T02:21:05.505Z,82.59
2023-03-06T02:23:45.786Z,82.23
2023-03-06T02:26:12.210Z,82.10
2023-03-06T02:28:38.717Z,82.20
2023-03-06T02:31:05.480Z,82.17
2023-03-06T02:33:32.138Z,82.26
2023-03-06T02:35:59.550Z,82.31
2023-03-06T02:38:27.772Z,82.04
2023-03-06T02:40:54.160Z,81.93
2023-03-06T02:43:32.353Z,83.03
2023-03-06T02:45:58.864Z,84.23
2023-03-06T02:48:25.326Z,85.12
2023-03-06T02:50:51.704Z,84.38
2023-03-06T02:53:18.468Z,84.22
2023-03-06T02:55:44.930Z,83.89
2023-03-06T02:58:11.516Z,83.68
2023-03-06T03:00:39.046Z,83.48
2023-03-06T03:03:06.543Z,83.55
2023-03-06T03:05:32.951Z,84.43
2023-03-06T03:07:59.375Z,84.43
2023-03-06T03:10:25.819Z,84.77
2023-03-06T03:12:52.286Z,86.46
2023-03-06T03:15:18.725Z,86.56
2023-03-06T03:17:45.164Z,86.60
2023-03-06T03:20:12.592Z,87.12
2023-03-06T03:22:39.118Z,87.31
2023-03-06T03:25:05.877Z,87.20
2023-03-06T03:27:32.412Z,87.18
2023-03-06T03:29:59.032Z,86.86
2023-03-06T03:32:25.648Z,87.06
2023-03-06T03:34:52.345Z,86.93
2023-03-06T03:37:18.855Z,87.86
2023-03-06T03:39:45.297Z,87.70
2023-03-06T03:42:11.684Z,87.19
2023-03-06T03:44:38.060Z,86.98
2023-03-06T03:47:04.730Z,86.58
2023-03-06T03:49:31.137Z,86.59
2023-03-06T03:51:57.552Z,87.21
2023-03-06T03:54:23.943Z,86.89
2023-03-06T03:56:50.358Z,88.61
2023-03-06T03:59:16.794Z,88.68
2023-03-06T04:01:43.228Z,89.15
2023-03-06T04:04:09.772Z,89.15
2023-03-06T04:06:36.360Z,89.43
2023-03-06T04:09:02.930Z,89.17
2023-03-06T04:11:29.318Z,88.83
2023-03-06T04:13:55.702Z,88.78
2023-03-06T04:16:22.217Z,88.29
2023-03-06T04:18:48.768Z,87.54
2023-03-06T04:21:15.157Z,88.21
2023-03-06T04:23:41.627Z,89.48
2023-03-06T04:26:08.068Z,89.20
2023-03-06T04:28:35.352Z,89.62
2023-03-06T04:31:01.909Z,89.52
2023-03-06T04:33:28.467Z,88.79
2023-03-06T04:35:54.958Z,88.53
2023-03-06T04:38:21.347Z,88.71
2023-03-06T04:40:47.802Z,88.51
2023-03-06T04:43:14.454Z,89.59
2023-03-06T04:45:41.099Z,89.11
2023-03-06T04:48:07.607Z,88.95
2023-03-06T04:50:34.078Z,88.62
2023-03-06T04:53:00.740Z,88.74
2023-03-06T04:55:27.394Z,89.47
2023-03-06T04:57:53.785Z,89.67
2023-03-06T05:00:21.111Z,90.27
2023-03-06T05:02:47.579Z,91.37
2023-03-06T05:05:14.181Z,91.29
2023-03-06T05:07:40.983Z,90.84
2023-03-06T05:10:07.907Z,90.88
2023-03-06T05:12:37.142Z,91.04
2023-03-06T05:15:04.125Z,91.17
2023-03-06T05:17:30.661Z,91.17
2023-03-06T05:19:57.077Z,89.77
2023-03-06T05:22:23.489Z,89.54
2023-03-06T05:24:50.048Z,90.00
2023-03-06T05:27:17.233Z,90.09
2023-03-06T05:29:43.775Z,89.96
2023-03-06T05:32:10.402Z,90.48
2023-03-06T05:34:36.967Z,89.88
2023-03-06T05:37:03.551Z,89.81
2023-03-06T05:39:29.998Z,90.20
2023-03-06T05:41:56.359Z,89.63
2023-03-06T05:44:22.777Z,90.01
2023-03-06T05:46:49.879Z,89.95
2023-03-06T05:49:16.542Z,90.01
2023-03-06T05:51:42.893Z,89.79
2023-03-06T05:54:10.199Z,90.58
2023-03-06T05:56:36.886Z,90.39
2023-03-06T05:59:03.288Z,90.54
2023-03-06T06:01:29.807Z,90.36
2023-03-06T06:03:56.316Z,89.98
2023-03-06T06:06:22.770Z,90.52
2023-03-06T06:08:49.221Z,90.52
2023-03-06T06:11:15.693Z,90.27
2023-03-06T06:13:42.147Z,90.24
2023-03-06T06:16:12.202Z,90.12
2023-03-06T06:18:41.135Z,91.06
2023-03-06T06:21:08.508Z,90.28
2023-03-06T06:23:35.017Z,89.76
2023-03-06T06:26:01.856Z,89.85
2023-03-06T06:28:28.581Z,89.77
2023-03-06T06:30:55.143Z,89.74
2023-03-06T06:33:21.550Z,90.10
2023-03-06T06:35:48.183Z,89.89
2023-03-06T06:38:14.626Z,89.63
2023-03-06T06:40:41.064Z,89.95
2023-03-06T06:43:07.414Z,89.74
2023-03-06T06:45:33.835Z,89.76
2023-03-06T06:48:00.282Z,89.22
2023-03-06T06:50:27.118Z,89.35
2023-03-06T06:52:53.601Z,88.91
2023-03-06T06:55:20.192Z,89.20
2023-03-06T06:57:47.069Z,90.06
2023-03-06T07:00:14.111Z,89.53
2023-03-06T07:02:40.527Z,89.24
2023-03-06T07:05:09.072Z,89.32
2023-03-06T07:07:36.126Z,89.74
2023-03-06T07:10:03.856Z,89.27
2023-03-06T07:12:30.251Z,88.99
2023-03-06T07:14:56.653Z,88.42
2023-03-06T07:17:23.068Z,89.04
2023-03-06T07:19:49.669Z,88.50
2023-03-06T07:22:17.040Z,88.25
2023-03-06T07:24:43.434Z,88.14
2023-03-06T07:27:11.025Z,87.83
2023-03-06T07:29:37.391Z,88.07
2023-03-06T07:32:03.959Z,87.58
2023-03-06T07:34:30.554Z,88.26
2023-03-06T07:36:57.108Z,87.87
2023-03-06T07:39:25.901Z,88.17
2023-03-06T07:41:54.187Z,87.98
2023-03-06T07:44:20.634Z,86.38
2023-03-06T07:46:47.091Z,85.08
2023-03-06T07:49:13.672Z,84.40
2023-03-06T07:51:40.267Z,83.63
2023-03-06T07:54:06.699Z,83.97
2023-03-06T07:56:33.261Z,82.84
2023-03-06T07:58:59.765Z,83.13
2023-03-06T08:01:27.513Z,83.98
2023-03-06T08:03:53.975Z,83.35
2023-03-06T08:06:21.508Z,83.27
2023-03-06T08:08:49.026Z,82.90
2023-03-06T08:11:15.954Z,82.89
2023-03-06T08:13:42.439Z,82.33
2023-03-06T08:16:14.152Z,82.59
2023-03-06T08:18:40.570Z,81.41
2023-03-06T08:21:06.914Z,81.28
2023-03-06T08:23:34.041Z,80.37
2023-03-06T08:26:01.317Z,80.47
2023-03-06T08:28:29.837Z,80.03
2023-03-06T08:30:56.463Z,80.49
2023-03-06T08:33:22.861Z,79.98
2023-03-06T08:35:49.457Z,78.76
2023-03-06T08:38:15.946Z,78.20
2023-03-06T08:40:43.901Z,78.42
2023-03-06T08:43:14.068Z,77.68
2023-03-06T08:45:40.689Z,76.59
2023-03-06T08:48:07.127Z,75.21
2023-03-06T08:50:33.870Z,75.74
2023-03-06T08:53:00.305Z,75.88
2023-03-06T08:55:27.212Z,75.24
2023-03-06T08:57:53.926Z,75.43
2023-03-06T09:00:20.908Z,76.06
2023-03-06T09:02:47.376Z,74.08
2023-03-06T09:05:13.888Z,74.09
2023-03-06T09:07:40.881Z,74.45
2023-03-06T09:10:07.433Z,74.49
2023-03-06T09:12:47.352Z,73.13
2023-03-06T09:15:15.948Z,73.09
2023-03-06T09:17:42.472Z,73.13
2023-03-06T09:20:10.571Z,72.71
2023-03-06T09:22:37.133Z,72.16
2023-03-06T09:25:04.159Z,73.04
2023-03-06T09:27:30.642Z,73.31
2023-03-06T09:29:57.119Z,72.52
2023-03-06T09:32:23.951Z,73.00
2023-03-06T09:34:50.408Z,72.61
2023-03-06T09:37:18.024Z,72.41
2023-03-06T09:39:44.498Z,71.81
2023-03-06T09:42:13.260Z,72.06
2023-03-06T09:44:40.800Z,72.28
2023-03-06T09:47:07.177Z,71.46
2023-03-06T09:49:37.131Z,71.18
2023-03-06T09:52:15.914Z,71.31
2023-03-06T09:54:46.295Z,70.46
2023-03-06T09:57:16.723Z,70.26
2023-03-06T09:59:43.692Z,68.90
2023-03-06T10:02:19.808Z,70.28
2023-03-06T10:04:47.584Z,69.25
2023-03-06T10:07:15.784Z,68.94
2023-03-06T10:09:45.734Z,69.05
2023-03-06T10:12:18.114Z,69.71
2023-03-06T10:14:48.797Z,70.23
2023-03-06T10:17:19.753Z,68.93
2023-03-06T10:19:46.121Z,69.09
2023-03-06T10:22:26.770Z,70.05
2023-03-06T10:25:13.486Z,67.97
2023-03-06T10:27:47.832Z,68.93
2023-03-06T10:30:14.718Z,68.90
2023-03-06T10:32:51.132Z,68.48
2023-03-06T10:35:40.494Z,68.56
2023-03-06T10:38:18.435Z,68.32
2023-03-06T10:40:48.034Z,67.53
2023-03-06T10:43:14.551Z,67.85
2023-03-06T10:45:50.880Z,68.52
2023-03-06T10:48:18.700Z,67.37
2023-03-06T10:50:45.204Z,67.34
2023-03-06T10:53:22.320Z,66.71
2023-03-06T10:55:53.252Z,66.86
2023-03-06T10:58:29.657Z,66.22
2023-03-06T11:01:18.535Z,66.19
2023-03-06T11:03:46.085Z,65.23
2023-03-06T11:06:13.488Z,66.40
2023-03-06T11:08:40.666Z,67.11
2023-03-06T11:11:15.857Z,65.92
2023-03-06T11:13:43.820Z,67.55
2023-03-06T11:16:13.317Z,67.49
2023-03-06T11:18:40.484Z,67.17
2023-03-06T11:21:23.219Z,69.31
2023-03-06T11:23:49.631Z,68.93
2023-03-06T11:26:15.978Z,67.31
2023-03-06T11:28:44.001Z,67.47
2023-03-06T11:31:10.428Z,67.78
2023-03-06T11:33:46.624Z,67.37
2023-03-06T11:36:15.037Z,66.26
2023-03-06T11:38:47.357Z,66.18
2023-03-06T11:41:15.656Z,66.67
2023-03-06T11:43:57.617Z,66.72
2023-03-06T11:46:28.490Z,65.90
2023-03-06T11:48:58.164Z,67.03
2023-03-06T11:51:28.747Z,65.22
2023-03-06T11:53:55.244Z,65.50
2023-03-06T11:56:41.568Z,65.09
2023-03-06T11:59:15.578Z,63.51
2023-03-06T12:01:59.907Z,63.82
2023-03-06T12:04:46.067Z,63.05
2023-03-06T12:07:31.514Z,63.37
2023-03-06T12:10:14.272Z,63.06
2023-03-06T12:12:56.069Z,62.99
2023-03-06T12:15:25.204Z,64.16
2023-03-06T12:17:54.672Z,64.70
2023-03-06T12:20:31.649Z,61.00
2023-03-06T12:23:15.272Z,61.43
2023-03-06T12:25:42.684Z,61.59
2023-03-06T12:28:24.645Z,61.69
2023-03-06T12:30:51.094Z,59.37
2023-03-06T12:33:31.626Z,59.19
2023-03-06T12:36:16.976Z,60.79
2023-03-06T12:38:43.505Z,59.64
2023-03-06T12:41:25.021Z,59.15
2023-03-06T12:44:10.470Z,58.66
2023-03-06T12:46:55.909Z,59.73
2023-03-06T12:49:31.929Z,59.80
2023-03-06T12:51:58.835Z,59.86
2023-03-06T12:54:29.333Z,60.43
2023-03-06T12:56:55.752Z,60.20
2023-03-06T12:59:38.599Z,58.88
2023-03-06T13:02:05.095Z,60.84
2023-03-06T13:04:36.443Z,59.47
2023-03-06T13:07:06.446Z,59.13
2023-03-06T13:09:38.827Z,58.41
2023-03-06T13:12:17.279Z,59.33
2023-03-06T13:14:53.933Z,60.51
2023-03-06T13:17:23.784Z,60.40
2023-03-06T13:20:10.129Z,60.58
2023-03-06T13:22:36.560Z,60.46
2023-03-06T13:25:19.567Z,62.70
2023-03-06T13:27:46.093Z,63.27
2023-03-06T13:30:21.738Z,66.84
2023-03-06T13:32:48.537Z,69.72
2023-03-06T13:35:38.435Z,74.15
2023-03-06T13:38:04.827Z,75.86
2023-03-06T13:40:35.307Z,75.17
2023-03-06T13:43:08.030Z,74.80
2023-03-06T13:45:37.387Z,76.05
2023-03-06T13:48:24.943Z,76.22
2023-03-06T13:50:51.378Z,76.85
2023-03-06T13:53:40.276Z,77.14
2023-03-06T13:56:15.393Z,76.71
2023-03-06T13:58:44.989Z,77.02
2023-03-06T14:01:14.232Z,78.12
2023-03-06T14:03:40.668Z,76.92
2023-03-06T14:06:25.901Z,76.40
2023-03-06T14:08:52.294Z,76.53
2023-03-06T14:11:21.556Z,75.70
2023-03-06T14:13:52.109Z,75.62
2023-03-06T14:16:20.023Z,72.68
2023-03-06T14:18:47.314Z,74.05
2023-03-06T14:21:14.726Z,71.86
2023-03-06T14:23:42.691Z,73.13
2023-03-06T14:26:26.937Z,70.97
2023-03-06T14:28:53.818Z,71.75
2023-03-06T14:31:21.515Z,71.88
2023-03-06T14:33:54.187Z,71.41
2023-03-06T14:36:21.507Z,70.87
2023-03-06T14:38:55.287Z,70.64
2023-03-06T14:41:34.410Z,69.78
2023-03-06T14:44:13.191Z,70.46
2023-03-06T14:46:39.637Z,71.54
2023-03-06T14:49:07.292Z,75.81
2023-03-06T14:51:43.204Z,79.17
2023-03-06T14:54:13.046Z,81.30
2023-03-06T14:56:40.124Z,82.83
2023-03-06T14:59:08.983Z,84.80
2023-03-06T15:01:40.305Z,85.50
2023-03-06T15:04:13.246Z,86.41
2023-03-06T15:06:40.462Z,85.44
2023-03-06T15:09:08.618Z,83.84
2023-03-06T15:11:53.925Z,84.01
2023-03-06T15:14:21.338Z,82.83
2023-03-06T15:16:47.813Z,81.55
2023-03-06T15:19:17.210Z,80.38
2023-03-06T15:21:45.843Z,78.97
2023-03-06T15:24:32.235Z,79.83
2023-03-06T15:27:00.415Z,78.51
2023-03-06T15:29:26.904Z,78.11
2023-03-06T15:31:54.193Z,79.46
2023-03-06T15:34:21.455Z,79.96
2023-03-06T15:36:48.430Z,79.53
2023-03-06T15:39:30.119Z,79.20
2023-03-06T15:41:59.313Z,79.33
2023-03-06T15:44:25.980Z,78.95
2023-03-06T15:46:59.221Z,78.69
2023-03-06T15:49:33.096Z,77.92
2023-03-06T15:51:59.548Z,78.47
2023-03-06T15:54:25.907Z,80.57
2023-03-06T15:56:52.386Z,79.77
2023-03-06T15:59:26.172Z,79.20
2023-03-06T16:01:52.637Z,78.90
2023-03-06T16:04:19.082Z,78.48
2023-03-06T16:06:45.565Z,78.13
2023-03-06T16:09:12.440Z,77.93
2023-03-06T16:11:43.956Z,77.43
2023-03-06T16:14:21.104Z,77.85
2023-03-06T16:16:47.687Z,77.76
2023-03-06T16:19:26.098Z,77.65
2023-03-06T16:21:54.177Z,77.59
2023-03-06T16:24:20.621Z,77.57
2023-03-06T16:26:47.536Z,77.61
2023-03-06T16:29:19.963Z,77.36
2023-03-06T16:31:46.578Z,78.02
2023-03-06T16:34:12.985Z,77.50
2023-03-06T16:36:39.386Z,77.17
2023-03-06T16:39:05.915Z,78.18
2023-03-06T16:41:32.493Z,77.79
2023-03-06T16:43:59.204Z,77.24
2023-03-06T16:46:25.779Z,77.19
2023-03-06T16:48:53.044Z,76.65
2023-03-06T16:51:20.136Z,76.96
2023-03-06T16:53:47.040Z,77.06
2023-03-06T16:56:14.474Z,77.84
2023-03-06T16:58:40.943Z,76.86
2023-03-06T17:01:07.502Z,77.65
2023-03-06T17:03:34.698Z,77.65
2023-03-06T17:06:01.125Z,78.42
2023-03-06T17:08:27.614Z,78.39
2023-03-06T17:10:54.132Z,77.99
2023-03-06T17:13:20.566Z,78.28
2023-03-06T17:15:50.975Z,78.70
2023-03-06T17:18:17.531Z,78.00
2023-03-06T17:20:48.077Z,77.89
2023-03-06T17:23:14.434Z,78.14
2023-03-06T17:25:40.974Z,77.77
2023-03-06T17:28:07.499Z,78.52
2023-03-06T17:30:33.960Z,78.61
2023-03-06T17:33:00.395Z,79.18
2023-03-06T17:35:26.931Z,78.96
2023-03-06T17:37:53.423Z,78.59
2023-03-06T17:40:19.982Z,79.16
2023-03-06T17:42:46.358Z,78.75
2023-03-06T17:45:12.787Z,78.85
2023-03-06T17:47:39.394Z,78.62
2023-03-06T17:50:05.854Z,78.65
2023-03-06T17:52:32.347Z,78.63
2023-03-06T17:54:58.752Z,78.87
2023-03-06T17:57:25.253Z,79.17
2023-03-06T17:59:51.624Z,78.84
2023-03-06T18:02:18.018Z,79.16
2023-03-06T18:04:44.552Z,78.89
2023-03-06T18:07:10.947Z,79.78
2023-03-06T18:09:37.486Z,79.45
2023-03-06T18:12:05.931Z,79.85
2023-03-06T18:14:32.415Z,79.47
2023-03-06T18:16:58.988Z,79.69
2023-03-06T18:19:25.435Z,79.42
2023-03-06T18:21:51.987Z,79.49
2023-03-06T18:24:18.392Z,79.44
2023-03-06T18:26:44.812Z,79.70
2023-03-06T18:29:11.891Z,79.83
2023-03-06T18:31:39.015Z,79.63
2023-03-06T18:34:06.780Z,79.51
2023-03-06T18:36:33.276Z,79.64
2023-03-06T18:38:59.860Z,80.11
2023-03-06T18:41:26.238Z,79.73
2023-03-06T18:43:52.981Z,79.64
2023-03-06T18:46:19.362Z,79.69
2023-03-06T18:48:45.785Z,80.23
2023-03-06T18:51:12.260Z,80.07
2023-03-06T18:53:38.756Z,80.28
2023-03-06T18:56:05.393Z,80.53
2023-03-06T18:58:31.850Z,79.93
2023-03-06T19:00:59.432Z,79.95
2023-03-06T19:03:26.885Z,80.09
2023-03-06T19:05:53.301Z,80.38
2023-03-06T19:08:20.022Z,80.34
2023-03-06T19:10:46.527Z,80.56
2023-03-06T19:13:13.185Z,80.81
2023-03-06T19:15:43.156Z,80.50
2023-03-06T19:18:10.096Z,79.93
2023-03-06T19:20:36.567Z,79.94
2023-03-06T19:23:02.952Z,79.64
2023-03-06T19:25:29.390Z,79.79
2023-03-06T19:27:56.360Z,80.24
2023-03-06T19:30:22.853Z,79.93
2023-03-06T19:32:49.384Z,80.22
2023-03-06T19:35:15.771Z,80.21
2023-03-06T19:37:42.282Z,80.48
2023-03-06T19:40:09.023Z,80.87
2023-03-06T19:42:35.605Z,80.16
2023-03-06T19:45:02.004Z,80.37
2023-03-06T19:47:28.421Z,80.81
2023-03-06T19:49:55.170Z,81.00
2023-03-06T19:52:21.588Z,81.15
2023-03-06T19:54:48.000Z,81.62
2023-03-06T19:57:14.469Z,80.72
2023-03-06T19:59:40.964Z,81.02
2023-03-06T20:02:11.169Z,80.98
2023-03-06T20:04:37.738Z,81.14
2023-03-06T20:07:04.163Z,80.78
2023-03-06T20:09:31.130Z,81.24
2023-03-06T20:11:57.546Z,81.85
2023-03-06T20:14:23.951Z,81.55
2023-03-06T20:16:50.518Z,80.99
2023-03-06T20:19:16.929Z,81.24
2023-03-06T20:21:43.301Z,81.24
2023-03-06T20:24:10.955Z,82.06
2023-03-06T20:26:37.374Z,81.87
2023-03-06T20:29:03.875Z,81.52
2023-03-06T20:31:30.511Z,81.55
2023-03-06T20:33:57.683Z,81.08
2023-03-06T20:36:25.038Z,80.65
2023-03-06T20:38:51.542Z,79.90
2023-03-06T20:41:18.633Z,80.48
2023-03-06T20:43:45.050Z,81.10
2023-03-06T20:46:11.761Z,80.97
2023-03-06T20:48:38.381Z,81.14
2023-03-06T20:51:05.973Z,81.21
2023-03-06T20:53:32.476Z,81.47
2023-03-06T20:55:58.869Z,82.24
2023-03-06T20:58:25.628Z,83.03
2023-03-06T21:00:52.318Z,83.31
2023-03-06T21:03:18.695Z,83.37
2023-03-06T21:05:48.214Z,82.86
2023-03-06T21:08:15.132Z,82.42
2023-03-06T21:10:41.577Z,81.55
2023-03-06T21:13:08.011Z,83.64
2023-03-06T21:15:34.495Z,83.30
2023-03-06T21:18:00.947Z,83.71
2023-03-06T21:20:27.348Z,83.10
2023-03-06T21:22:53.742Z,82.85
2023-03-06T21:25:20.242Z,83.80
2023-03-06T21:27:46.772Z,83.49
2023-03-06T21:30:13.570Z,83.50
2023-03-06T21:32:40.378Z,83.82
2023-03-06T21:35:06.813Z,83.87
2023-03-06T21:37:33.267Z,83.19
2023-03-06T21:39:59.851Z,82.42
2023-03-06T21:42:26.311Z,82.14
2023-03-06T21:44:53.472Z,82.27
2023-03-06T21:47:19.933Z,82.50
2023-03-06T21:49:48.014Z,81.87
2023-03-06T21:52:14.562Z,81.44
2023-03-06T21:54:40.915Z,81.39
2023-03-06T21:57:07.443Z,81.61
2023-03-06T21:59:33.852Z,81.39
2023-03-06T22:02:00.326Z,81.49
2023-03-06T22:04:26.782Z,81.74
2023-03-06T22:06:53.336Z,81.19
2023-03-06T22:09:19.813Z,80.24
2023-03-06T22:11:46.327Z,80.04
2023-03-06T22:14:12.727Z,80.45
2023-03-06T22:16:39.214Z,79.70
2023-03-06T22:19:06.235Z,80.00
2023-03-06T22:21:32.883Z,79.87
2023-03-06T22:23:59.499Z,79.92
2023-03-06T22:26:26.484Z,79.98
2023-03-06T22:28:52.900Z,80.46
2023-03-06T22:31:20.084Z,80.78
2023-03-06T22:33:46.549Z,80.23
2023-03-06T22:36:13.923Z,80.48
2023-03-06T22:38:41.303Z,80.43
2023-03-06T22:41:08.095Z,80.54
2023-03-06T22:43:34.534Z,79.80
2023-03-06T22:46:11.467Z,79.96
2023-03-06T22:48:38.158Z,80.10
2023-03-06T22:51:08.560Z,80.46
2023-03-06T22:53:34.995Z,80.26
2023-03-06T22:56:01.717Z,80.59
2023-03-06T22:58:28.318Z,80.45
2023-03-06T23:00:54.841Z,79.45
2023-03-06T23:03:21.235Z,79.62
2023-03-06T23:05:47.767Z,79.38
2023-03-06T23:08:14.167Z,79.67
2023-03-06T23:10:40.649Z,79.50
2023-03-06T23:13:07.061Z,79.60
2023-03-06T23:15:34.840Z,79.03
2023-03-06T23:18:01.370Z,79.16
2023-03-06T23:20:27.885Z,79.45
2023-03-06T23:22:54.363Z,79.45
2023-03-06T23:25:20.998Z,80.26
2023-03-06T23:27:47.590Z,81.49
2023-03-06T23:30:14.089Z,81.95
2023-03-06T23:32:40.603Z,81.97
2023-03-06T23:35:07.200Z,80.65
2023-03-06T23:37:33.612Z,80.51
2023-03-06T23:40:00.006Z,79.94
2023-03-06T23:42:26.461Z,79.13
2023-03-06T23:44:53.011Z,79.12
2023-03-06T23:47:19.506Z,80.09
2023-03-06T23:49:46.043Z,79.58
2023-03-06T23:52:12.552Z,80.80
2023-03-06T23:54:39.047Z,80.46
2023-03-06T23:57:05.545Z,80.54
2023-03-06T23:59:32.014Z,80.80
